Ne plus se rappeler de moi
Bonjour et Bienvenue
Pas de session ouverte
Mardi 01/09/2015
d:\inetpub\wwwroot\acrroussillon\reservation\ACR\IMAGES\IMG1.JPGd:\inetpub\wwwroot\acrroussillon\reservation\ACR\IMAGES\IMG2.JPGd:\inetpub\wwwroot\acrroussillon\reservation\ACR/IMAGES/IMG3.jpg
00:00:00
Horaires du 01/09/2015 (Données à titre indicatif seulement).
Lever du soleil : 07h13 - Coucher du soleil : 20h24 (Heure Locale)
Jour aéronautique : 06h43 - Nuit aéronautique : 20h54 (Heure Locale)
Planning des réservations des aéronefs
Planning des réservations des aéronefs
2015/08/31 23:30
LFMP 312330Z AUTO 08010KT 9999 FEW058/// SCT120/// BKN160/// ///CB 20/18 Q1014
Planning des réservations des aéronefs
2015/08/31 18:21
TAF LFMP 311700Z 3118/0118 07010KT 9999 OVC010
TEMPO 3118/0108 4000 SHRA BKN008 BKN020TCU PROB30
TEMPO 3118/3124 2000 TSRA BKN006 BKN015CB
BECMG 0100/0103 32012KT
BECMG 0108/0111 SCT030
Informations sur les aéronefs
Informations sur les aéronefs
Modifications des Types de vols
ATTENTION PLUS DE PAIEMENT EN LIGNE DEPUIS LA MAISON
AEROCLUB DU ROUSSILLON. AVENUE MAURICE BELLONTE. 66000 PERPIGNAN. Tel : 04.68.73.48.18 Fax : 09.55.16.18.97 Courriel : aeroclub-roussillon@hotmail.fr
 METAR / TAF
LIENS UTILES
envoyer un e-mail
d:\inetpub\wwwroot\acrroussillon\reservation\ACR/IMAGES/Logo.jpg
Identifiez vous pour interaction
d:\inetpub\wwwroot\acrroussillon\reservation\ACR/IMAGES/Logo.jpg
Aéro-Club du Roussillon